Impacts TAF Board INFO
FOR SITUATIONAL AWARENESS. NOT TO BE USED FOR FLIGHT PLANNING PURPOSES.
IDs:

KFLL - Ft Lauderdale-Hollyw, FL, US

Issued at 1131 UTC 15 Aug 2018
Updated at 1331 UTC 15 Aug 2018
Potential Impact None Slight Moderate High
Time<<16/02Z 16/03Z 16/04Z 16/05Z 16/06Z 16/07Z 16/08Z 16/09Z 16/10Z 16/11Z 16/12Z 16/13Z 16/14Z>>
Type PRVL PRVL PRVL PRVL PRVL PRVL PRVL PRVL PRVL PRVL PRVL PRVL PRVL
VIS >6 >6 >6 >6 >6 >6 >6 >6 >6 >6 >6 >6 >6
CIG -- -- -- -- -- -- -- -- -- -- -- -- --
Cover SCT SCT SCT SCT SCT SCT SCT SCT SCT SCT SCT SCT SCT
FltCat VFR VFR VFR VFR VFR VFR VFR VFR VFR VFR VFR VFR VFR
WX -- -- -- -- -- -- -- -- -- -- -- -- --
WDir 100 100 100 100 100 100 100 100 100 100 100 100 120
WSpd 6 6 6 6 6 6 6 6 6 6 6 6 12
WGst -- -- -- -- -- -- -- -- -- -- -- -- --

Raw TAF
KFLL 151131Z 1512/1618 13006KT P6SM FEW030 SCT250
  FM151400 12012KT P6SM FEW030 SCT250
  FM151800 12015KT P6SM SCT030 BKN050
  FM160100 10006KT P6SM FEW040 SCT250
  FM161400 12012KT P6SM SCT035


METAR Board
Radar Display
Forecast Discussion

FOR SITUATIONAL AWARENESS. NOT TO BE USED FOR FLIGHT PLANNING PURPOSES.